Alamogordo, NM

3:16 PM MST on November 12, 2019 (GMT -0700)
Alamogordo-White Sands Regional

Weather History for KALM - September, 2019

Change the Weather History Date:

Sunday, September 22, 2019

  Actual Average Record
Temperature  
Mean Temperature 70 °F -  
Max Temperature 82 °F 83 °F 97 °F (1953)
Min Temperature 57 °F 56 °F 43 °F (1965)
Cooling Degree Days 4    
Growing Degree Days 20 (Base 50)    
Moisture  
Dew Point 54 °F    
Average Humidity 63    
Maximum Humidity 94    
Minimum Humidity 30    
Precipitation  
Precipitation 0.00 in - - ()
Sea Level Pressure  
Sea Level Pressure 30.12 in    
Wind  
Wind Speed 3 mph ()    
Max Wind Speed 12 mph    
Max Gust Speed -    
Visibility 10.0 miles    
Events      
Averages and records for this station are not official NWS values.
T = Trace of Precipitation, MM = Missing Value Source: Averaged Metar Reports

Daily Weather History Graph

Daily Weather History Graph

Search for Another Location

Airport or City:

Astronomy

Sep. 22, 2019 Rise Set
Actual Time 6:52 AM MDT 7:00 PM MDT
Civil Twilight 6:27 AM MDT 7:25 PM MDT
Nautical Twilight 5:58 AM MDT 7:54 PM MDT
Astronomical Twilight 5:29 AM MDT 8:23 PM MDT
Moon 12:02 AM MDT (9/22) 2:39 PM MDT (9/22)
Length of Visible Light 12h 58m
Length of Day
12h 08m
Last Quarter, 43% of the Moon is Illuminated
Sep 22
Last Quarter
Sep 28
New
Oct 5
First Quarter
Oct 13
Full
Oct 21
Last Quarter

Hourly Weather History & Observations

Time (MDT) Temp. Dew Point Humidity Pressure Visibility Wind Dir Wind Speed Gust Speed Precip Events Conditions
12:15 AM 64.4 °F 57.2 °F 77% 30.08 in 10.0 mi Calm Calm - N/A   Clear
12:35 AM 64.4 °F 57.2 °F 77% 30.08 in 10.0 mi South 4.6 mph - N/A   Clear
12:55 AM 62.6 °F 59.0 °F 88% 30.09 in 10.0 mi ESE 3.5 mph - N/A   Clear
1:15 AM 62.6 °F 57.2 °F 82% 30.09 in 10.0 mi SSE 3.5 mph - N/A   Clear
1:35 AM 62.6 °F 57.2 °F 82% 30.09 in 10.0 mi Calm Calm - N/A   Clear
1:55 AM 60.8 °F 57.2 °F 88% 30.09 in 10.0 mi ESE 6.9 mph - N/A   Clear
2:15 AM 62.6 °F 57.2 °F 82% 30.09 in 10.0 mi South 5.8 mph - N/A   Clear
2:35 AM 62.6 °F 57.2 °F 82% 30.09 in 10.0 mi South 5.8 mph - N/A   Clear
2:55 AM 62.6 °F 57.2 °F 82% 30.10 in 10.0 mi SW 4.6 mph - N/A   Clear
3:15 AM 59.0 °F 57.2 °F 94% 30.09 in 10.0 mi SSW 3.5 mph - N/A   Clear
3:35 AM 59.0 °F 57.2 °F 94% 30.10 in 10.0 mi Calm Calm - N/A   Clear
3:55 AM 59.0 °F 57.2 °F 94% 30.10 in 10.0 mi Calm Calm - N/A   Clear
4:15 AM 59.0 °F 57.2 °F 94% 30.10 in 10.0 mi Calm Calm - N/A   Clear
4:35 AM 59.0 °F 55.4 °F 88% 30.10 in 10.0 mi Calm Calm - N/A   Clear
4:55 AM 59.0 °F 55.4 °F 88% 30.11 in 10.0 mi Calm Calm - N/A   Clear
5:15 AM 57.2 °F 55.4 °F 94% 30.11 in 10.0 mi Calm Calm - N/A   Clear
5:35 AM 57.2 °F 55.4 °F 94% 30.11 in 10.0 mi NE 3.5 mph - N/A   Clear
5:55 AM 57.2 °F 55.4 °F 94% 30.12 in 10.0 mi Calm Calm - N/A   Clear
6:15 AM 57.2 °F 55.4 °F 94% 30.12 in 10.0 mi Calm Calm - N/A   Clear
6:35 AM 59.0 °F 55.4 °F 88% 30.14 in 10.0 mi Calm Calm - N/A   Clear
6:55 AM 57.2 °F 53.6 °F 88% 30.14 in 10.0 mi Calm Calm - N/A   Clear
7:15 AM 57.2 °F 55.4 °F 94% 30.15 in 10.0 mi East 3.5 mph - N/A   Clear
7:35 AM 57.2 °F 55.4 °F 94% 30.15 in 10.0 mi Calm Calm - N/A   Clear
7:55 AM 59.0 °F 55.4 °F 88% 30.15 in 10.0 mi Calm Calm - N/A   Clear
8:15 AM 62.6 °F 57.2 °F 82% 30.16 in 10.0 mi Calm Calm - N/A   Clear
8:35 AM 64.4 °F 57.2 °F 77% 30.17 in 10.0 mi Calm Calm - N/A   Clear
8:55 AM 66.2 °F 59.0 °F 78% 30.17 in 10.0 mi SE 3.5 mph - N/A   Clear
9:15 AM 68.0 °F 59.0 °F 73% 30.18 in 10.0 mi SSW 5.8 mph - N/A   Clear
9:35 AM 69.8 °F 59.0 °F 68% 30.18 in 10.0 mi SSW 5.8 mph - N/A   Clear
9:55 AM 71.6 °F 59.0 °F 64% 30.19 in 10.0 mi SSE 8.1 mph - N/A   Scattered Clouds
10:15 AM 71.6 °F 59.0 °F 64% 30.19 in 10.0 mi South 8.1 mph - N/A   Partly Cloudy
10:35 AM 73.4 °F 60.8 °F 65% 30.19 in 10.0 mi South 10.4 mph - N/A   Mostly Cloudy
10:55 AM 73.4 °F 59.0 °F 61% 30.19 in 10.0 mi South 11.5 mph - N/A   Scattered Clouds
11:15 AM 73.4 °F 59.0 °F 61% 30.19 in 10.0 mi SSW 10.4 mph - N/A   Partly Cloudy
11:35 AM 75.2 °F 59.0 °F 57% 30.18 in 10.0 mi South 8.1 mph - N/A   Partly Cloudy
11:55 AM 75.2 °F 59.0 °F 57% 30.18 in 10.0 mi South 3.5 mph - N/A   Clear
12:15 PM 75.2 °F 59.0 °F 57% 30.17 in 10.0 mi SSW 8.1 mph - N/A   Partly Cloudy
12:35 PM 75.2 °F 57.2 °F 53% 30.16 in 10.0 mi South 3.5 mph - N/A   Clear
12:55 PM 77.0 °F 57.2 °F 50% 30.16 in 10.0 mi SW 5.8 mph - N/A   Clear
1:15 PM 77.0 °F 55.4 °F 47% 30.15 in 10.0 mi South 4.6 mph - N/A   Clear
1:35 PM 78.8 °F 53.6 °F 42% 30.14 in 10.0 mi SW 3.5 mph - N/A   Clear
1:55 PM 78.8 °F 53.6 °F 42% 30.13 in 10.0 mi NW 4.6 mph - N/A   Clear
2:15 PM 80.6 °F 50.0 °F 34% 30.13 in 10.0 mi ESE 3.5 mph - N/A   Clear
2:35 PM 80.6 °F 51.8 °F 37% 30.12 in 10.0 mi SSE 3.5 mph - N/A   Clear
2:55 PM 80.6 °F 50.0 °F 34% 30.11 in 10.0 mi Calm Calm - N/A   Clear
3:15 PM 82.4 °F 50.0 °F 32% 30.10 in 10.0 mi North 3.5 mph - N/A   Clear
3:35 PM 82.4 °F 48.2 °F 30% 30.10 in 10.0 mi North 8.1 mph - N/A   Clear
3:55 PM 82.4 °F 48.2 °F 30% 30.09 in 10.0 mi North 4.6 mph - N/A   Clear
4:15 PM 82.4 °F 48.2 °F 30% 30.09 in 10.0 mi NNE 4.6 mph - N/A   Clear
4:35 PM 82.4 °F 48.2 °F 30% 30.08 in 10.0 mi NNE 3.5 mph - N/A   Clear
4:55 PM 82.4 °F 48.2 °F 30% 30.08 in 10.0 mi ESE 4.6 mph - N/A   Clear
5:15 PM 82.4 °F 48.2 °F 30% 30.08 in 10.0 mi SE 3.5 mph - N/A   Clear
5:35 PM 82.4 °F 48.2 °F 30% 30.08 in 10.0 mi Calm Calm - N/A   Clear
5:55 PM 80.6 °F 50.0 °F 34% 30.08 in 10.0 mi South 4.6 mph - N/A   Clear
6:15 PM 82.4 °F 50.0 °F 32% 30.08 in 10.0 mi South 4.6 mph - N/A   Clear
6:35 PM 78.8 °F 50.0 °F 36% 30.08 in 10.0 mi South 4.6 mph - N/A   Clear
6:55 PM 77.0 °F 50.0 °F 39% 30.09 in 10.0 mi SSE 4.6 mph - N/A   Clear
7:15 PM 75.2 °F 50.0 °F 41% 30.09 in 10.0 mi SE 4.6 mph - N/A   Clear
7:35 PM 75.2 °F 50.0 °F 41% 30.09 in 10.0 mi SE 5.8 mph - N/A   Clear
7:55 PM 71.6 °F 50.0 °F 46% 30.09 in 10.0 mi SE 8.1 mph - N/A   Clear
8:35 PM 68.0 °F 50.0 °F 52% 30.11 in 10.0 mi SSE 8.1 mph - N/A   Clear
8:55 PM 69.8 °F 50.0 °F 49% 30.11 in 10.0 mi SSE 6.9 mph - N/A   Clear
9:15 PM 68.0 °F 50.0 °F 52% 30.12 in 10.0 mi SSE 8.1 mph - N/A   Clear
9:35 PM 68.0 °F 51.8 °F 56% 30.12 in 10.0 mi SSE 8.1 mph - N/A   Clear
9:55 PM 68.0 °F 51.8 °F 56% 30.12 in 10.0 mi SSE 6.9 mph - N/A   Clear
10:15 PM 68.0 °F 51.8 °F 56% 30.13 in 10.0 mi SSE 8.1 mph - N/A   Clear
10:35 PM 68.0 °F 51.8 °F 56% 30.13 in 10.0 mi SSE 8.1 mph - N/A   Clear
10:55 PM 66.2 °F 51.8 °F 60% 30.14 in 10.0 mi SSE 5.8 mph - N/A   Clear
11:15 PM 66.2 °F 53.6 °F 64% 30.14 in 10.0 mi SSE 6.9 mph - N/A   Clear
11:35 PM 68.0 °F 51.8 °F 56% 30.14 in 10.0 mi SSE 6.9 mph - N/A   Clear
11:55 PM 68.0 °F 51.8 °F 56% 30.14 in 10.0 mi SSE 6.9 mph - N/A   Clear